CheckWX is a tool to help pilots better visualize weather data.  It is not intended as a substitute for an official pre-flight weather briefing.

11:59:48 UTC

EGLL METAR
London Heathrow Airport
London, United Kingdom
Current

40 mins ago

EGLL 171120Z AUTO VRB03KT 9999 NCD 07/05 Q1011 NOSIG
Observed
Nov-17 @ 11:20 UTC
Wind
  • Variable at 3 KTS
Visibility
10,000+ meters
Flight Rules
VFR
Cloud Levels
  • Clear skies
Temperature
C / 45°F
Dewpoint
C / 41°F
Humidity
87%
Altimeter
29.85" Hg
Pressure
1010.92 hPa
Previous

1 hour ago

EGLL 171050Z AUTO VRB03KT 7000 NCD 06/05 Q1011 NOSIG
Observed
Nov-17 @ 10:50 UTC
Wind
  • Variable at 3 KTS
Visibility
7,000 meters
Flight Rules
MVFR
Cloud Levels
  • Clear skies
Temperature
C / 43°F
Dewpoint
C / 41°F
Humidity
93%
Altimeter
29.85" Hg
Pressure
1010.92 hPa
Previous

2 hours ago

EGLL 171020Z AUTO 32003KT 6000 NCD 05/05 Q1011
Observed
Nov-17 @ 10:20 UTC
Wind
  • 320° at 3 KTS
Visibility
6,000 meters
Flight Rules
MVFR
Cloud Levels
  • Clear skies
Temperature
C / 41°F
Dewpoint
C / 41°F
Humidity
100%
Altimeter
29.85" Hg
Pressure
1010.92 hPa